createdAt,value
2023-03-23T16:04:01.658Z,97982.84
2023-03-23T16:14:27.637Z,97991.75
2023-03-23T16:24:53.571Z,98002.44
2023-03-23T16:35:21.889Z,98001.80
2023-03-23T16:45:48.624Z,98001.64
2023-03-23T16:56:15.111Z,98004.23
2023-03-23T17:06:41.362Z,97999.04
2023-03-23T17:17:07.184Z,98003.44
2023-03-23T17:27:35.348Z,98020.69
2023-03-23T17:38:01.650Z,98030.59
2023-03-23T17:48:27.667Z,98052.68
2023-03-23T17:58:53.251Z,98027.59
2023-03-23T18:09:19.140Z,98031.31
2023-03-23T18:19:47.487Z,98044.06
2023-03-23T18:30:14.034Z,98062.70
2023-03-23T18:40:45.732Z,98074.71
2023-03-23T18:51:12.052Z,98083.97
2023-03-23T19:01:37.622Z,98082.84
2023-03-23T19:12:03.522Z,98076.83
2023-03-23T19:22:29.233Z,98086.23
2023-03-23T19:32:55.089Z,98082.31
2023-03-23T19:43:21.370Z,98068.07
2023-03-23T19:53:47.563Z,98077.84
2023-03-23T20:04:14.262Z,98082.49
2023-03-23T20:14:45.127Z,98089.64
2023-03-23T20:25:11.600Z,98105.71
2023-03-23T20:35:38.565Z,98115.88
2023-03-23T20:46:05.788Z,98123.42
2023-03-23T20:56:31.666Z,98135.71
2023-03-23T21:06:57.793Z,98132.26
2023-03-23T21:17:23.972Z,98120.74
2023-03-23T21:27:52.005Z,98116.45
2023-03-23T21:38:19.992Z,98131.38
2023-03-23T21:48:46.090Z,98136.48
2023-03-23T21:59:11.601Z,98129.19
2023-03-23T22:09:39.068Z,98126.55
2023-03-23T22:20:05.787Z,98134.50
2023-03-23T22:30:33.099Z,98132.84
2023-03-23T22:41:01.241Z,98130.38
2023-03-23T22:51:27.126Z,98125.83
2023-03-23T23:01:52.825Z,98126.02
2023-03-23T23:12:20.300Z,98128.70
2023-03-23T23:22:46.203Z,98131.20
2023-03-23T23:33:12.370Z,98132.05
2023-03-23T23:43:37.871Z,98126.24
2023-03-23T23:54:04.716Z,98129.77
